Airfield :
LOGIN :

Register | Disclaimer

   EN    FR    IT 

 










Legend :    VFR   Marginal VFR   IFR   Intensive IFR   Very Intensive IFR
Visi :
Ceiling :
>= 8 km
>= 3000ft
5 to 8 km
1000 to 3000 ft
1500m to 5 km
500 to 1000 ft
800 to 1500m
200 to 500 ft
< 800m
< 200 ft
Symbols :   Thunderstorms  Fog  Heavy snow  Heavy precipitations  Wind > 20 kt
SIGMETs :     Misc.  Thunderstorms  Icing  Turbulence  Mountain Waves  Volcanic Ashes






- Airport Elevation : 535 ft


LFBF - Toulouse / Francazal

CURRENT METAR :
  • 161230Z AUTO VRB04KT 9999 BKN045 BKN060 25/14 Q1019

EXPIRED METARs :
  • 161200Z AUTO 34010KT 320V030 9999 FEW045 BKN060 25/14 Q1019
  • 161130Z AUTO 36007KT 310V020 9999 FEW043 BKN062 24/14 Q1020
  • 161100Z AUTO 01006KT 310V110 9999 FEW047 BKN060 25/14 Q1020
  • 161030Z AUTO 34006KT 310V040 9999 SCT042 BKN048 BKN054 23/13 Q1020
  • 161000Z AUTO VRB05KT 9999 FEW042 SCT250 23/14 Q1020
  • 160930Z AUTO 32005KT 280V040 9999 FEW041 24/14 Q1020
  • 160900Z AUTO 31004KT 210V010 9999 FEW038 BKN064 23/14 Q1020
  • 160830Z AUTO 35005KT 290V050 CAVOK 23/14 Q1020
  • 160800Z AUTO 33004KT 270V040 9999 FEW030 OVC064 22/14 Q1020

TAF N/A



MET'MAP, your aeronautical weather chart ! - Copyright ORBIFLY December 2007 - Disclaimer

ORBIFLY MET'MAP TEAM :

Programming & Development : Alexandra Zaïnal
Original concept : Baudouin d'Aumeries
Technical & hardware support : Manuel Goepfert
Assistance : Marc-Olivier Méhu




SOURCES & CREDITS :

   NOAA